Time;durP1;ratioP1;P1;durP2;ratioP2;P2;SDS_P1;SDS_P2;PMS_P1;PMS_P2;Temp;Humidity;BMP_temperature;BMP_pressure;BME280_temperature;BME280_humidity;BME280_pressure;Samples;Min_cycle;Max_cycle;Signal;HPM_P1;HPM_P2
2022/09/25 00:00:17;;;;;;;9.80;3.47;;;;;;;;;;4979147;28;20218;-83
2022/09/25 00:02:43;;;;;;;11.33;3.37;;;;;;;;;;5007552;28;20204;-84
2022/09/25 00:05:10;;;;;;;11.07;2.93;;;;;;;;;;5016019;28;20177;-84
2022/09/25 00:07:36;;;;;;;11.50;3.43;;;;;;;;;;5005599;28;20266;-84
2022/09/25 00:10:02;;;;;;;7.50;3.00;;;;;;;;;;5001364;28;20272;-84
2022/09/25 00:12:28;;;;;;;10.20;3.37;;;;;;;;;;5007819;28;20257;-81
2022/09/25 00:14:55;;;;;;;8.50;3.23;;;;;;;;;;4995161;28;20334;-81
2022/09/25 00:17:21;;;;;;;11.13;2.80;;;;;;;;;;4980267;28;20270;-81
2022/09/25 00:19:50;;;;;;;10.43;3.27;;;;;;;;;;4978758;28;20237;-81
2022/09/25 00:22:17;;;;;;;6.63;2.90;;;;;;;;;;4984194;28;20186;-81
2022/09/25 00:24:43;;;;;;;9.07;3.33;;;;;;;;;;5014406;28;20260;-83
2022/09/25 00:27:09;;;;;;;12.50;3.30;;;;;;;;;;4992086;28;20188;-82
2022/09/25 00:29:36;;;;;;;9.07;2.77;;;;;;;;;;4994999;28;20194;-81
2022/09/25 00:32:03;;;;;;;7.43;2.73;;;;;;;;;;4996079;28;20236;-81
2022/09/25 00:34:28;;;;;;;14.13;3.10;;;;;;;;;;5014622;28;20192;-81
2022/09/25 00:36:54;;;;;;;7.57;2.80;;;;;;;;;;4993360;28;20186;-81
2022/09/25 00:39:21;;;;;;;8.43;2.93;;;;;;;;;;4997642;28;20224;-81
2022/09/25 00:41:47;;;;;;;14.03;3.37;;;;;;;;;;5005231;28;20174;-80
2022/09/25 00:44:31;;;;;;;10.13;2.93;;;;;;;;;;5011634;28;20181;-81
2022/09/25 00:46:58;;;;;;;12.07;3.13;;;;;;;;;;5009471;28;20204;-80
2022/09/25 00:49:25;;;;;;;10.80;2.90;;;;;;;;;;4996387;28;20309;-80
2022/09/25 00:52:02;;;;;;;10.97;2.87;;;;;;;;;;5014224;28;20215;-80
2022/09/25 00:54:31;;;;;;;14.07;3.00;;;;;;;;;;4995172;28;20178;-80
2022/09/25 00:56:58;;;;;;;8.73;2.83;;;;;;;;;;4998696;28;20185;-82
2022/09/25 00:59:29;;;;;;;11.53;3.00;;;;;;;;;;4996106;28;20210;-82
2022/09/25 01:01:56;;;;;;;10.97;3.27;;;;;;;;;;4994299;28;20209;-82
2022/09/25 01:04:22;;;;;;;7.97;2.80;;;;;;;;;;5012052;28;20212;-82
2022/09/25 01:06:49;;;;;;;8.43;2.50;;;;;;;;;;5010729;28;20232;-82
2022/09/25 01:09:16;;;;;;;9.40;2.80;;;;;;;;;;5008614;28;20272;-82
2022/09/25 01:11:44;;;;;;;8.40;2.80;;;;;;;;;;4994078;28;20400;-82
2022/09/25 01:14:11;;;;;;;7.47;2.13;;;;;;;;;;4992194;28;20196;-82
2022/09/25 01:16:46;;;;;;;6.37;2.47;;;;;;;;;;4996351;28;20197;-82
2022/09/25 01:19:31;;;;;;;8.03;2.20;;;;;;;;;;5007327;28;20212;-82
2022/09/25 01:22:05;;;;;;;9.13;2.83;;;;;;;;;;5013664;28;20188;-82
2022/09/25 01:24:43;;;;;;;4.33;2.23;;;;;;;;;;4997617;28;20221;-82
2022/09/25 01:27:21;;;;;;;9.73;2.53;;;;;;;;;;4999056;28;20185;-83
2022/09/25 01:29:47;;;;;;;8.20;2.57;;;;;;;;;;5013193;28;20185;-84
2022/09/25 01:32:33;;;;;;;7.77;2.60;;;;;;;;;;5011763;28;20216;-84
2022/09/25 01:35:05;;;;;;;9.63;2.50;;;;;;;;;;4995654;28;20205;-83
2022/09/25 01:37:43;;;;;;;9.43;2.83;;;;;;;;;;5001455;28;20200;-84
2022/09/25 01:40:10;;;;;;;11.27;2.57;;;;;;;;;;4995131;28;20210;-84
2022/09/25 01:42:44;;;;;;;8.03;2.70;;;;;;;;;;4993433;28;20341;-84
2022/09/25 01:45:15;;;;;;;6.43;2.40;;;;;;;;;;5012606;28;20230;-83
2022/09/25 01:47:42;;;;;;;10.67;2.33;;;;;;;;;;5004111;28;20209;-84
2022/09/25 01:50:28;;;;;;;9.17;2.27;;;;;;;;;;5010447;28;20236;-84
2022/09/25 01:52:56;;;;;;;5.27;2.40;;;;;;;;;;5014256;28;20197;-83
2022/09/25 01:55:26;;;;;;;7.23;2.50;;;;;;;;;;5012427;28;20181;-81
2022/09/25 01:57:58;;;;;;;9.23;2.60;;;;;;;;;;5002401;28;20217;-80
2022/09/25 02:00:24;;;;;;;8.17;2.20;;;;;;;;;;5012309;28;20212;-80
2022/09/25 02:02:59;;;;;;;8.63;2.40;;;;;;;;;;5013134;28;20184;-80
2022/09/25 02:05:31;;;;;;;7.07;2.30;;;;;;;;;;5041541;23;20258;-80
2022/09/25 02:08:03;;;;;;;6.97;2.30;;;;;;;;;;5072620;28;20229;-80
2022/09/25 02:10:33;;;;;;;6.70;2.33;;;;;;;;;;5069210;28;20215;-80
2022/09/25 02:13:05;;;;;;;10.73;2.30;;;;;;;;;;5052512;28;20247;-80
2022/09/25 02:15:34;;;;;;;8.77;2.40;;;;;;;;;;5070015;28;20183;-80
2022/09/25 02:20:49;;;;;;;9.40;2.50;;;;;;;;;;5073712;28;20240;-83
2022/09/25 02:23:35;;;;;;;8.47;2.60;;;;;;;;;;5072669;28;20180;-83
2022/09/25 02:26:06;;;;;;;6.60;2.30;;;;;;;;;;5052504;28;20200;-82
2022/09/25 02:28:32;;;;;;;7.73;2.33;;;;;;;;;;5071585;28;20217;-83
2022/09/25 02:31:00;;;;;;;13.17;2.87;;;;;;;;;;5052674;28;20183;-82
2022/09/25 02:33:26;;;;;;;8.80;2.57;;;;;;;;;;5052784;28;20218;-82
2022/09/25 02:35:53;;;;;;;5.57;2.67;;;;;;;;;;5051153;28;20196;-82
2022/09/25 02:38:19;;;;;;;6.90;2.40;;;;;;;;;;5072045;28;20183;-82
2022/09/25 02:40:56;;;;;;;7.27;2.30;;;;;;;;;;5073177;28;20239;-82
2022/09/25 02:43:37;;;;;;;6.73;2.27;;;;;;;;;;5072396;28;20179;-82
2022/09/25 02:46:18;;;;;;;5.97;2.23;;;;;;;;;;5072047;28;20203;-82
2022/09/25 02:48:50;;;;;;;7.37;2.40;;;;;;;;;;5075446;28;20190;-82
2022/09/25 02:51:24;;;;;;;7.53;2.50;;;;;;;;;;5075893;28;20389;-82
2022/09/25 02:53:55;;;;;;;5.37;2.10;;;;;;;;;;5075716;28;20183;-82
2022/09/25 02:56:48;;;;;;;6.87;2.50;;;;;;;;;;5075617;28;20179;-82
2022/09/25 02:59:16;;;;;;;4.90;2.60;;;;;;;;;;5060462;28;20364;-82
2022/09/25 03:01:44;;;;;;;7.33;2.30;;;;;;;;;;5075987;28;20178;-82
2022/09/25 03:04:10;;;;;;;10.20;2.70;;;;;;;;;;5059107;28;20183;-80
2022/09/25 03:06:38;;;;;;;6.13;2.70;;;;;;;;;;5058855;28;20239;-80
2022/09/25 03:09:04;;;;;;;6.77;2.23;;;;;;;;;;5075609;28;20236;-82
2022/09/25 03:11:30;;;;;;;8.40;2.83;;;;;;;;;;5071976;28;20211;-83
2022/09/25 03:14:00;;;;;;;6.47;2.40;;;;;;;;;;5043290;28;20295;-83
2022/09/25 03:16:32;;;;;;;7.33;2.40;;;;;;;;;;5075026;28;20175;-82
2022/09/25 03:18:58;;;;;;;7.90;2.33;;;;;;;;;;5076074;28;20225;-82
2022/09/25 03:21:24;;;;;;;10.40;2.90;;;;;;;;;;5075391;28;20201;-83
2022/09/25 03:23:50;;;;;;;10.37;2.47;;;;;;;;;;5058709;28;20217;-80
2022/09/25 03:26:16;;;;;;;8.50;2.63;;;;;;;;;;5075343;28;20171;-80
2022/09/25 03:28:42;;;;;;;8.60;2.53;;;;;;;;;;5075128;28;20215;-80
2022/09/25 03:31:10;;;;;;;9.30;2.87;;;;;;;;;;5055372;28;20210;-80
2022/09/25 03:33:40;;;;;;;9.47;2.90;;;;;;;;;;5055184;28;20183;-80
2022/09/25 03:36:08;;;;;;;7.50;2.57;;;;;;;;;;5067616;28;20180;-80
2022/09/25 03:38:34;;;;;;;7.30;2.57;;;;;;;;;;5074738;28;20270;-80
2022/09/25 03:41:00;;;;;;;7.63;2.60;;;;;;;;;;5074760;28;20167;-80
2022/09/25 03:43:27;;;;;;;4.63;2.60;;;;;;;;;;5075378;28;20190;-83
2022/09/25 03:45:53;;;;;;;5.50;2.60;;;;;;;;;;5055068;28;20184;-84
2022/09/25 03:48:19;;;;;;;4.77;2.27;;;;;;;;;;5050229;28;20176;-82
2022/09/25 03:50:48;;;;;;;10.40;2.60;;;;;;;;;;5055100;28;20180;-82
2022/09/25 03:53:14;;;;;;;12.03;2.70;;;;;;;;;;5055851;28;20210;-85
2022/09/25 03:55:41;;;;;;;7.63;2.93;;;;;;;;;;5074295;28;20256;-84
2022/09/25 03:58:06;;;;;;;8.70;2.90;;;;;;;;;;5073851;28;20175;-83
2022/09/25 04:00:32;;;;;;;6.20;2.47;;;;;;;;;;5054736;28;20176;-83
2022/09/25 04:02:59;;;;;;;7.37;2.57;;;;;;;;;;5057707;28;20218;-83
2022/09/25 04:05:25;;;;;;;6.60;2.60;;;;;;;;;;5074124;28;20251;-83
2022/09/25 04:07:51;;;;;;;8.67;2.77;;;;;;;;;;5054838;28;20184;-83
2022/09/25 04:10:17;;;;;;;8.00;2.63;;;;;;;;;;5057519;28;20182;-83
2022/09/25 04:12:43;;;;;;;7.60;2.70;;;;;;;;;;5049180;28;20192;-83
2022/09/25 04:15:09;;;;;;;5.87;2.60;;;;;;;;;;5057505;28;20207;-84
2022/09/25 04:17:35;;;;;;;7.90;2.57;;;;;;;;;;5048418;28;20183;-80
2022/09/25 04:20:01;;;;;;;6.90;2.77;;;;;;;;;;5057378;28;20210;-80
2022/09/25 04:22:27;;;;;;;7.73;2.30;;;;;;;;;;5050951;28;20271;-80
2022/09/25 04:24:53;;;;;;;4.90;2.43;;;;;;;;;;5054386;28;20271;-80
2022/09/25 04:27:23;;;;;;;6.37;2.50;;;;;;;;;;5073629;28;20236;-80
2022/09/25 04:29:49;;;;;;;8.87;2.50;;;;;;;;;;5073598;28;20189;-80
2022/09/25 04:35:00;;;;;;;5.87;2.37;;;;;;;;;;5073705;28;20237;-80
2022/09/25 04:37:27;;;;;;;7.97;2.60;;;;;;;;;;5056898;28;20194;-80
2022/09/25 04:39:56;;;;;;;7.70;2.50;;;;;;;;;;5051631;28;20264;-80
2022/09/25 04:42:23;;;;;;;12.33;2.80;;;;;;;;;;5052141;28;20308;-80
2022/09/25 04:44:50;;;;;;;4.27;2.40;;;;;;;;;;5073473;28;20199;-79
2022/09/25 04:47:16;;;;;;;6.83;2.70;;;;;;;;;;5073016;28;20167;-79
2022/09/25 04:49:42;;;;;;;6.70;2.60;;;;;;;;;;5056803;28;20221;-84
2022/09/25 04:52:09;;;;;;;8.23;2.87;;;;;;;;;;5052796;28;20187;-84
2022/09/25 04:54:35;;;;;;;13.47;2.53;;;;;;;;;;5056723;28;20202;-84
2022/09/25 04:57:01;;;;;;;7.13;2.33;;;;;;;;;;5052387;28;20184;-84
2022/09/25 04:59:28;;;;;;;8.43;2.80;;;;;;;;;;5073178;28;20238;-84
2022/09/25 05:01:54;;;;;;;7.57;2.60;;;;;;;;;;5070367;28;20179;-84
2022/09/25 05:04:20;;;;;;;8.67;2.50;;;;;;;;;;5072986;28;20190;-83
2022/09/25 05:06:46;;;;;;;6.27;2.50;;;;;;;;;;5053251;28;20187;-81
2022/09/25 05:09:12;;;;;;;6.17;2.30;;;;;;;;;;5056154;28;20183;-82
2022/09/25 05:11:38;;;;;;;8.17;2.40;;;;;;;;;;5072463;28;20227;-82
2022/09/25 05:14:04;;;;;;;8.97;2.53;;;;;;;;;;5072814;28;20183;-82
2022/09/25 05:16:30;;;;;;;8.13;2.90;;;;;;;;;;5072481;28;20197;-82
2022/09/25 05:18:56;;;;;;;4.90;2.10;;;;;;;;;;5073008;28;20353;-82
2022/09/25 05:21:22;;;;;;;10.23;2.57;;;;;;;;;;5056328;28;20176;-83
2022/09/25 05:23:49;;;;;;;6.67;2.60;;;;;;;;;;5072642;28;20194;-80
2022/09/25 05:26:15;;;;;;;7.83;2.80;;;;;;;;;;5055982;28;20205;-80
2022/09/25 05:28:41;;;;;;;8.40;2.80;;;;;;;;;;5072412;28;20179;-80
2022/09/25 05:31:07;;;;;;;8.43;2.47;;;;;;;;;;5072759;28;20266;-80
2022/09/25 05:33:34;;;;;;;13.43;3.13;;;;;;;;;;5069926;28;20239;-80
2022/09/25 05:36:04;;;;;;;11.07;2.90;;;;;;;;;;5072301;28;20187;-80
2022/09/25 05:38:34;;;;;;;7.00;2.47;;;;;;;;;;5072216;28;20182;-80
2022/09/25 05:41:04;;;;;;;9.90;2.70;;;;;;;;;;5072690;28;20224;-82
2022/09/25 05:43:30;;;;;;;8.37;3.00;;;;;;;;;;5050211;28;20183;-82
2022/09/25 05:45:57;;;;;;;10.23;2.90;;;;;;;;;;5072145;28;20194;-82
2022/09/25 05:48:23;;;;;;;5.80;2.90;;;;;;;;;;5049366;28;20188;-79
2022/09/25 05:50:53;;;;;;;9.63;2.47;;;;;;;;;;5072345;28;20193;-79
2022/09/25 05:53:19;;;;;;;6.10;2.60;;;;;;;;;;5072123;28;20190;-79
2022/09/25 05:55:51;;;;;;;9.27;2.50;;;;;;;;;;5072313;28;20180;-80
2022/09/25 05:58:17;;;;;;;6.70;2.30;;;;;;;;;;5055764;28;20184;-80
2022/09/25 06:00:44;;;;;;;8.00;2.60;;;;;;;;;;5072549;28;20179;-79
2022/09/25 06:03:10;;;;;;;8.87;2.90;;;;;;;;;;5052809;28;20264;-79
2022/09/25 06:05:36;;;;;;;7.50;2.53;;;;;;;;;;5037650;28;20238;-80
2022/09/25 06:08:03;;;;;;;6.27;2.63;;;;;;;;;;5072097;28;20179;-80
2022/09/25 06:10:29;;;;;;;5.93;2.80;;;;;;;;;;5070413;28;20270;-79
2022/09/25 06:12:57;;;;;;;5.47;2.93;;;;;;;;;;5050108;28;20184;-82
2022/09/25 06:15:24;;;;;;;6.90;2.83;;;;;;;;;;5072034;28;20179;-81
2022/09/25 06:17:50;;;;;;;8.53;2.73;;;;;;;;;;5043422;28;20180;-81
2022/09/25 06:20:16;;;;;;;7.70;2.57;;;;;;;;;;5070229;28;20207;-82
2022/09/25 06:22:46;;;;;;;7.70;2.57;;;;;;;;;;5053481;28;20183;-81
2022/09/25 06:25:14;;;;;;;6.93;2.93;;;;;;;;;;5073814;28;20190;-81
2022/09/25 06:27:40;;;;;;;4.97;2.70;;;;;;;;;;5051614;28;20180;-81
2022/09/25 06:30:06;;;;;;;4.40;2.57;;;;;;;;;;5059479;28;20179;-83
2022/09/25 06:32:32;;;;;;;7.53;2.77;;;;;;;;;;5075923;28;20179;-83
2022/09/25 06:34:58;;;;;;;6.97;2.50;;;;;;;;;;5076481;28;20191;-83
2022/09/25 06:37:24;;;;;;;5.73;2.80;;;;;;;;;;5052883;28;20184;-83
2022/09/25 06:39:50;;;;;;;4.57;2.67;;;;;;;;;;5050947;28;20207;-83
2022/09/25 06:42:16;;;;;;;5.10;2.93;;;;;;;;;;5056354;28;20180;-84
2022/09/25 06:44:42;;;;;;;7.17;3.03;;;;;;;;;;5059112;28;20171;-84
2022/09/25 06:47:11;;;;;;;6.53;2.87;;;;;;;;;;5056205;28;20298;-79
2022/09/25 06:49:37;;;;;;;6.00;3.10;;;;;;;;;;5075839;28;20187;-80
2022/09/25 06:52:03;;;;;;;6.40;2.90;;;;;;;;;;5075505;28;20175;-79
2022/09/25 06:54:30;;;;;;;3.93;2.87;;;;;;;;;;5056269;28;20184;-79
2022/09/25 06:56:56;;;;;;;6.07;2.67;;;;;;;;;;5075188;28;20183;-79
2022/09/25 06:59:24;;;;;;;4.20;2.77;;;;;;;;;;5075373;28;20210;-80
2022/09/25 07:01:50;;;;;;;5.03;2.70;;;;;;;;;;5072933;28;20210;-80
2022/09/25 07:04:17;;;;;;;6.33;2.70;;;;;;;;;;5048587;28;20204;-80
2022/09/25 07:06:43;;;;;;;3.93;2.37;;;;;;;;;;5075129;28;20179;-80
2022/09/25 07:09:09;;;;;;;4.30;2.80;;;;;;;;;;5075680;28;20184;-80
2022/09/25 07:11:35;;;;;;;7.87;2.60;;;;;;;;;;5057832;28;20263;-83
2022/09/25 07:14:01;;;;;;;6.73;2.53;;;;;;;;;;5072748;28;20230;-83
2022/09/25 07:16:28;;;;;;;5.07;2.67;;;;;;;;;;5058100;28;20191;-80
2022/09/25 07:18:56;;;;;;;7.07;2.40;;;;;;;;;;5075291;28;20210;-81
2022/09/25 07:21:23;;;;;;;4.47;2.40;;;;;;;;;;5075776;28;20191;-82
2022/09/25 07:23:50;;;;;;;4.90;2.30;;;;;;;;;;5075165;28;20206;-82
2022/09/25 07:26:23;;;;;;;6.17;2.40;;;;;;;;;;5075485;28;20186;-82
2022/09/25 07:28:54;;;;;;;4.67;2.40;;;;;;;;;;5075280;28;20275;-82
2022/09/25 07:31:21;;;;;;;4.43;1.90;;;;;;;;;;5075583;28;20244;-82
2022/09/25 07:33:48;;;;;;;5.57;2.37;;;;;;;;;;5075010;28;20176;-82
2022/09/25 07:36:14;;;;;;;4.90;2.03;;;;;;;;;;5075855;28;20232;-84
2022/09/25 07:38:41;;;;;;;6.83;1.93;;;;;;;;;;5075387;28;20203;-80
2022/09/25 07:41:10;;;;;;;5.07;1.90;;;;;;;;;;5059046;28;20215;-81
2022/09/25 07:43:42;;;;;;;6.70;1.90;;;;;;;;;;5076066;28;20214;-80
2022/09/25 07:46:08;;;;;;;7.60;2.30;;;;;;;;;;5058724;28;20240;-84
2022/09/25 07:48:34;;;;;;;5.07;2.17;;;;;;;;;;5054962;28;20176;-84
2022/09/25 07:51:07;;;;;;;4.53;2.00;;;;;;;;;;5058221;28;20270;-85
2022/09/25 07:53:33;;;;;;;4.33;2.00;;;;;;;;;;5074915;28;20266;-83
2022/09/25 07:56:00;;;;;;;7.20;1.83;;;;;;;;;;5058180;28;20270;-82
2022/09/25 07:58:27;;;;;;;5.90;2.13;;;;;;;;;;5074298;28;20206;-82
2022/09/25 08:00:53;;;;;;;5.80;1.80;;;;;;;;;;5074911;28;20171;-83
2022/09/25 08:03:20;;;;;;;3.33;2.20;;;;;;;;;;5058036;28;20233;-82
2022/09/25 08:05:46;;;;;;;6.87;1.53;;;;;;;;;;5049800;28;20262;-82
2022/09/25 08:08:12;;;;;;;3.80;1.90;;;;;;;;;;5074019;28;20280;-84
2022/09/25 08:10:38;;;;;;;3.17;1.80;;;;;;;;;;5074761;28;20214;-81
2022/09/25 08:13:04;;;;;;;3.97;1.90;;;;;;;;;;5074490;28;20281;-80
2022/09/25 08:15:30;;;;;;;6.63;1.77;;;;;;;;;;5058165;28;20229;-81
2022/09/25 08:17:56;;;;;;;3.80;1.87;;;;;;;;;;5054304;28;20180;-80
2022/09/25 08:20:22;;;;;;;5.93;2.00;;;;;;;;;;5053326;28;20208;-80
2022/09/25 08:22:48;;;;;;;4.80;1.73;;;;;;;;;;5054732;28;20183;-80
2022/09/25 08:25:14;;;;;;;5.30;1.80;;;;;;;;;;5054629;28;20172;-80
2022/09/25 08:27:42;;;;;;;2.87;1.40;;;;;;;;;;5066312;28;20186;-81
2022/09/25 08:30:09;;;;;;;4.83;1.20;;;;;;;;;;5073930;28;20202;-83
2022/09/25 08:32:35;;;;;;;4.13;1.43;;;;;;;;;;5070237;28;20188;-81
2022/09/25 08:35:02;;;;;;;3.73;1.03;;;;;;;;;;5071331;28;20190;-80
2022/09/25 08:37:30;;;;;;;2.00;1.20;;;;;;;;;;5057188;28;20180;-81
2022/09/25 08:39:56;;;;;;;2.63;1.00;;;;;;;;;;5074905;28;20245;-82
2022/09/25 08:42:28;;;;;;;6.10;1.30;;;;;;;;;;5057741;28;20211;-82
2022/09/25 08:50:27;;;;;;;4.40;1.23;;;;;;;;;;5073943;28;20205;-81
2022/09/25 08:53:00;;;;;;;4.57;1.10;;;;;;;;;;5073408;28;20171;-82
2022/09/25 08:58:26;;;;;;;2.83;1.07;;;;;;;;;;5074816;28;20241;-82
2022/09/25 09:00:53;;;;;;;4.73;1.37;;;;;;;;;;5073292;28;20236;-81
2022/09/25 09:03:20;;;;;;;3.40;1.30;;;;;;;;;;5073507;28;20178;-82
2022/09/25 09:05:47;;;;;;;2.97;1.13;;;;;;;;;;5073335;28;20250;-81
2022/09/25 09:08:15;;;;;;;2.47;1.20;;;;;;;;;;5073353;28;20183;-81
2022/09/25 09:10:53;;;;;;;4.27;1.20;;;;;;;;;;5073680;28;20201;-81
2022/09/25 09:13:28;;;;;;;4.40;1.10;;;;;;;;;;5073734;28;20203;-81
2022/09/25 09:15:54;;;;;;;2.73;1.10;;;;;;;;;;5074449;28;20186;-83
2022/09/25 09:18:27;;;;;;;2.47;1.20;;;;;;;;;;5073296;28;20194;-82
2022/09/25 09:20:55;;;;;;;3.90;1.27;;;;;;;;;;5074241;28;20183;-82
2022/09/25 09:23:22;;;;;;;3.57;1.37;;;;;;;;;;5073211;28;20183;-81
2022/09/25 09:25:48;;;;;;;3.27;1.20;;;;;;;;;;5072771;28;20180;-82
2022/09/25 09:28:37;;;;;;;2.87;1.13;;;;;;;;;;5068314;28;20183;-82
2022/09/25 09:31:19;;;;;;;2.27;1.20;;;;;;;;;;5043440;28;20233;-82
2022/09/25 09:33:45;;;;;;;2.97;1.10;;;;;;;;;;5062823;28;20179;-81
2022/09/25 09:36:17;;;;;;;4.33;1.23;;;;;;;;;;5072934;28;20183;-83
2022/09/25 09:38:43;;;;;;;3.73;1.20;;;;;;;;;;5073920;28;20260;-82
2022/09/25 09:41:42;;;;;;;3.37;1.20;;;;;;;;;;5072826;28;20186;-82
2022/09/25 09:44:17;;;;;;;3.77;1.20;;;;;;;;;;5062141;28;20191;-82
2022/09/25 09:47:06;;;;;;;5.50;1.33;;;;;;;;;;5072753;28;20221;-81
2022/09/25 09:49:50;;;;;;;4.83;1.27;;;;;;;;;;5067488;28;20259;-81
2022/09/25 09:52:18;;;;;;;3.33;1.10;;;;;;;;;;5072453;28;20187;-82
2022/09/25 09:54:47;;;;;;;5.23;1.33;;;;;;;;;;5072617;28;20205;-81
2022/09/25 09:57:20;;;;;;;3.53;1.30;;;;;;;;;;5072076;28;20221;-81
2022/09/25 09:59:55;;;;;;;2.80;1.20;;;;;;;;;;5072697;28;20207;-82
2022/09/25 10:02:24;;;;;;;2.67;1.30;;;;;;;;;;5071304;28;20206;-82
2022/09/25 10:04:51;;;;;;;5.17;1.47;;;;;;;;;;5072416;28;20249;-81
2022/09/25 10:07:21;;;;;;;2.23;1.10;;;;;;;;;;5072646;28;20210;-83
2022/09/25 10:09:48;;;;;;;4.05;1.42;;;;;;;;;;5071968;28;20425;-81
2022/09/25 10:12:24;;;;;;;5.77;1.20;;;;;;;;;;5072548;28;20186;-81
2022/09/25 10:14:50;;;;;;;5.13;1.30;;;;;;;;;;5072401;28;20245;-81
2022/09/25 10:17:17;;;;;;;2.57;1.03;;;;;;;;;;5072512;28;20175;-82
2022/09/25 10:19:44;;;;;;;6.17;1.20;;;;;;;;;;5072503;28;20260;-81
2022/09/25 10:22:13;;;;;;;3.53;1.23;;;;;;;;;;5072226;28;20177;-82
2022/09/25 10:24:57;;;;;;;4.17;1.20;;;;;;;;;;5072536;28;20176;-82
2022/09/25 10:27:40;;;;;;;2.93;1.40;;;;;;;;;;5072385;28;20233;-82
2022/09/25 10:30:17;;;;;;;4.70;1.30;;;;;;;;;;5072251;28;20187;-82
2022/09/25 10:32:46;;;;;;;2.80;1.20;;;;;;;;;;5072131;28;20179;-82
2022/09/25 10:35:17;;;;;;;2.03;1.10;;;;;;;;;;5072268;28;20175;-82
2022/09/25 10:37:43;;;;;;;2.47;1.20;;;;;;;;;;5072054;28;20287;-82
2022/09/25 10:40:33;;;;;;;5.23;1.00;;;;;;;;;;5072794;28;20235;-82
2022/09/25 10:43:04;;;;;;;2.20;0.90;;;;;;;;;;5060285;28;20214;-82
2022/09/25 10:45:31;;;;;;;2.50;1.07;;;;;;;;;;5072086;28;20193;-82
2022/09/25 10:50:43;;;;;;;1.85;1.00;;;;;;;;;;5073591;28;20213;-82
2022/09/25 10:53:27;;;;;;;2.87;1.17;;;;;;;;;;5072591;28;20183;-82
2022/09/25 10:55:59;;;;;;;2.67;1.10;;;;;;;;;;5071958;28;20182;-81
2022/09/25 10:58:31;;;;;;;2.88;1.30;;;;;;;;;;5072008;28;20270;-82
2022/09/25 11:00:59;;;;;;;3.33;1.10;;;;;;;;;;5072326;28;20183;-82
2022/09/25 11:03:26;;;;;;;2.50;1.25;;;;;;;;;;5072057;28;20171;-82
2022/09/25 11:05:57;;;;;;;3.15;0.98;;;;;;;;;;5072166;28;20233;-82
2022/09/25 11:08:25;;;;;;;3.17;1.10;;;;;;;;;;5074235;28;20243;-82
2022/09/25 11:10:56;;;;;;;5.13;1.10;;;;;;;;;;5075499;28;20260;-82
2022/09/25 11:13:24;;;;;;;3.90;1.15;;;;;;;;;;5075321;28;20182;-82
2022/09/25 11:15:52;;;;;;;3.28;0.90;;;;;;;;;;5076879;28;20213;-82
2022/09/25 11:18:51;;;;;;;2.78;1.00;;;;;;;;;;5055833;28;20207;-82
2022/09/25 11:21:23;;;;;;;4.35;1.10;;;;;;;;;;5038652;28;20187;-82
2022/09/25 11:24:02;;;;;;;3.75;1.00;;;;;;;;;;5075234;28;20171;-82
2022/09/25 11:26:35;;;;;;;42.78;2.30;;;;;;;;;;5074786;28;20175;-83
2022/09/25 11:29:13;;;;;;;3.42;1.10;;;;;;;;;;5076440;28;20179;-82
2022/09/25 11:31:42;;;;;;;3.47;1.00;;;;;;;;;;5075213;28;20190;-83
2022/09/25 11:34:31;;;;;;;1.45;0.88;;;;;;;;;;5075621;28;20262;-82
2022/09/25 11:37:16;;;;;;;3.80;1.00;;;;;;;;;;5056719;28;20187;-82
2022/09/25 11:42:41;;;;;;;3.35;1.20;;;;;;;;;;5076150;28;20267;-82
2022/09/25 11:45:26;;;;;;;2.05;1.00;;;;;;;;;;5075226;28;20167;-82
2022/09/25 11:48:11;;;;;;;4.05;1.13;;;;;;;;;;5074830;28;20185;-82
2022/09/25 11:50:52;;;;;;;4.68;1.10;;;;;;;;;;5076260;28;20163;-82
2022/09/25 11:53:18;;;;;;;4.78;1.20;;;;;;;;;;5074642;28;20171;-82
2022/09/25 11:56:03;;;;;;;2.28;0.90;;;;;;;;;;5076012;28;20248;-82
2022/09/25 11:58:30;;;;;;;3.55;1.10;;;;;;;;;;5074196;28;20176;-82
2022/09/25 12:01:29;;;;;;;2.42;1.00;;;;;;;;;;5075071;28;20187;-82
2022/09/25 12:04:13;;;;;;;3.00;0.90;;;;;;;;;;5052875;28;20187;-82
2022/09/25 12:06:54;;;;;;;3.00;0.93;;;;;;;;;;5074312;28;20226;-82
2022/09/25 12:09:33;;;;;;;1.67;0.80;;;;;;;;;;5074627;28;20201;-82
2022/09/25 12:12:06;;;;;;;4.53;1.30;;;;;;;;;;5075564;28;20190;-82
2022/09/25 12:14:32;;;;;;;3.15;1.27;;;;;;;;;;5074443;28;20197;-82
2022/09/25 12:17:14;;;;;;;5.05;1.38;;;;;;;;;;5074073;28;20183;-82
2022/09/25 12:19:58;;;;;;;4.75;1.10;;;;;;;;;;5075283;28;20227;-82
2022/09/25 12:22:27;;;;;;;2.37;1.10;;;;;;;;;;5074829;28;20233;-82
2022/09/25 12:24:59;;;;;;;3.13;1.25;;;;;;;;;;5074784;28;20186;-82
2022/09/25 12:27:31;;;;;;;3.60;1.20;;;;;;;;;;5073765;28;20185;-83
2022/09/25 12:30:16;;;;;;;3.07;1.07;;;;;;;;;;5074501;28;20190;-83
2022/09/25 12:32:49;;;;;;;3.70;1.40;;;;;;;;;;5073915;28;20187;-82
2022/09/25 12:35:25;;;;;;;1.83;1.00;;;;;;;;;;5074997;28;20229;-82
2022/09/25 12:37:56;;;;;;;3.63;1.10;;;;;;;;;;5074761;28;20186;-82
2022/09/25 12:40:31;;;;;;;5.43;1.20;;;;;;;;;;5074100;28;20218;-82
2022/09/25 12:43:06;;;;;;;2.73;1.20;;;;;;;;;;5074049;28;20257;-82
2022/09/25 12:45:38;;;;;;;2.90;0.90;;;;;;;;;;5074078;28;20179;-82
2022/09/25 12:48:13;;;;;;;2.87;1.20;;;;;;;;;;5065583;28;20182;-82
2022/09/25 12:50:45;;;;;;;3.27;1.23;;;;;;;;;;5075063;28;20170;-82
2022/09/25 12:53:33;;;;;;;3.33;1.38;;;;;;;;;;5072907;28;20442;-81
2022/09/25 12:56:07;;;;;;;5.67;1.27;;;;;;;;;;5073718;28;20274;-81
2022/09/25 12:58:39;;;;;;;2.67;1.20;;;;;;;;;;5074809;28;20193;-81
2022/09/25 13:01:21;;;;;;;3.23;1.20;;;;;;;;;;5073669;28;20171;-81
2022/09/25 13:03:51;;;;;;;2.10;1.00;;;;;;;;;;5074515;28;20214;-81
2022/09/25 13:06:24;;;;;;;4.43;1.20;;;;;;;;;;5073372;28;20225;-81
2022/09/25 13:08:56;;;;;;;4.23;1.30;;;;;;;;;;5073686;28;20229;-80
2022/09/25 13:11:39;;;;;;;6.10;1.20;;;;;;;;;;5073347;28;20402;-82
2022/09/25 13:14:10;;;;;;;2.83;1.00;;;;;;;;;;5074076;28;20183;-82
2022/09/25 13:16:36;;;;;;;4.43;0.97;;;;;;;;;;5073975;28;20203;-82
2022/09/25 13:19:22;;;;;;;2.10;0.90;;;;;;;;;;5053641;28;20269;-82
2022/09/25 13:21:48;;;;;;;1.93;1.00;;;;;;;;;;5054584;28;20172;-82
2022/09/25 13:24:15;;;;;;;3.43;1.10;;;;;;;;;;5054650;28;20175;-81
2022/09/25 13:26:47;;;;;;;2.80;0.97;;;;;;;;;;5037149;28;20206;-81
2022/09/25 13:29:35;;;;;;;6.00;1.07;;;;;;;;;;5054145;28;20176;-82
2022/09/25 13:32:06;;;;;;;4.47;0.90;;;;;;;;;;5054065;28;20164;-81
2022/09/25 13:34:39;;;;;;;3.53;1.23;;;;;;;;;;5063532;28;20179;-82
2022/09/25 13:37:06;;;;;;;2.13;0.90;;;;;;;;;;5072417;28;20240;-82
2022/09/25 13:42:34;;;;;;;1.97;0.90;;;;;;;;;;5073621;28;20178;-81
2022/09/25 13:45:24;;;;;;;2.33;1.07;;;;;;;;;;5072874;28;20278;-81
2022/09/25 13:47:53;;;;;;;3.60;1.10;;;;;;;;;;5070457;28;20191;-81
2022/09/25 13:50:32;;;;;;;1.93;0.83;;;;;;;;;;5072945;28;20320;-81
2022/09/25 13:53:16;;;;;;;1.90;0.97;;;;;;;;;;5071936;28;20186;-81
2022/09/25 13:56:02;;;;;;;12.23;1.50;;;;;;;;;;5052793;28;20192;-81
2022/09/25 13:58:48;;;;;;;5.77;1.10;;;;;;;;;;5065145;28;20187;-81
2022/09/25 14:01:20;;;;;;;1.77;0.80;;;;;;;;;;5073460;28;20183;-81
2022/09/25 14:03:48;;;;;;;2.40;0.90;;;;;;;;;;5072471;28;20171;-81
2022/09/25 14:06:23;;;;;;;2.73;0.93;;;;;;;;;;5055789;28;20230;-81
2022/09/25 14:08:50;;;;;;;3.00;1.00;;;;;;;;;;5072421;28;20232;-81
2022/09/25 14:11:19;;;;;;;2.20;1.17;;;;;;;;;;5072840;28;20175;-81
2022/09/25 14:13:47;;;;;;;1.23;0.97;;;;;;;;;;5072563;28;20179;-81
2022/09/25 14:16:25;;;;;;;3.63;1.20;;;;;;;;;;5072454;28;20225;-82
2022/09/25 14:18:52;;;;;;;3.23;0.90;;;;;;;;;;5072345;28;20191;-82
2022/09/25 14:21:19;;;;;;;3.43;0.97;;;;;;;;;;5078655;23;20254;-81
2022/09/25 14:23:53;;;;;;;2.83;1.43;;;;;;;;;;5072437;28;20240;-81
2022/09/25 14:26:26;;;;;;;3.97;1.30;;;;;;;;;;5057704;28;20179;-81
2022/09/25 14:28:53;;;;;;;2.47;1.30;;;;;;;;;;5072394;28;20270;-81
2022/09/25 14:31:22;;;;;;;3.57;1.30;;;;;;;;;;5072533;28;20171;-81
2022/09/25 14:34:07;;;;;;;5.47;1.30;;;;;;;;;;5072752;28;20265;-81
2022/09/25 14:36:53;;;;;;;3.00;1.33;;;;;;;;;;5072778;28;20186;-82
2022/09/25 14:39:27;;;;;;;3.37;1.50;;;;;;;;;;5072333;28;20199;-81
2022/09/25 14:42:17;;;;;;;3.93;1.50;;;;;;;;;;5073737;28;20244;-81
2022/09/25 14:44:58;;;;;;;4.90;1.50;;;;;;;;;;5076112;28;20228;-81
2022/09/25 14:47:29;;;;;;;4.37;1.10;;;;;;;;;;5076067;28;20217;-82
2022/09/25 14:49:55;;;;;;;3.47;1.20;;;;;;;;;;5075973;28;20268;-82
2022/09/25 14:52:23;;;;;;;2.90;1.27;;;;;;;;;;5059527;28;20274;-82
2022/09/25 14:54:50;;;;;;;1.10;0.90;;;;;;;;;;5075776;28;20176;-81
2022/09/25 14:57:18;;;;;;;4.23;1.10;;;;;;;;;;5075834;28;20184;-82
2022/09/25 14:59:48;;;;;;;5.67;1.30;;;;;;;;;;5076730;28;20206;-82
2022/09/25 15:02:17;;;;;;;3.47;1.30;;;;;;;;;;5075827;28;20197;-82
2022/09/25 15:04:43;;;;;;;3.37;1.00;;;;;;;;;;5075438;28;20182;-82
2022/09/25 15:07:17;;;;;;;5.47;1.17;;;;;;;;;;5059017;28;20187;-81
2022/09/25 15:09:47;;;;;;;2.77;1.23;;;;;;;;;;5076595;28;20171;-81
2022/09/25 15:12:16;;;;;;;4.70;1.10;;;;;;;;;;5075869;28;20217;-81
2022/09/25 15:15:01;;;;;;;2.17;1.10;;;;;;;;;;5075227;28;20232;-81
2022/09/25 15:17:28;;;;;;;3.70;1.23;;;;;;;;;;5075487;28;20311;-81
2022/09/25 15:19:57;;;;;;;2.67;1.40;;;;;;;;;;5076071;28;20223;-81
2022/09/25 15:22:25;;;;;;;3.97;1.27;;;;;;;;;;5075624;28;20171;-81